createdAt,value
2022-10-25T00:01:23.369Z,0.30
2022-10-25T00:03:51.826Z,0.20
2022-10-25T00:06:22.063Z,0.20
2022-10-25T00:08:50.870Z,0.30
2022-10-25T00:11:21.891Z,0.20
2022-10-25T00:13:51.191Z,0.27
2022-10-25T00:16:22.361Z,0.20
2022-10-25T00:18:51.022Z,0.20
2022-10-25T00:21:19.534Z,0.20
2022-10-25T00:23:49.920Z,0.20
2022-10-25T00:26:18.340Z,0.20
2022-10-25T00:28:46.962Z,0.20
2022-10-25T00:31:17.185Z,0.30
2022-10-25T00:33:46.041Z,0.20
2022-10-25T00:36:16.814Z,0.23
2022-10-25T00:38:46.345Z,0.20
2022-10-25T00:41:18.017Z,0.20
2022-10-25T00:43:48.845Z,0.20
2022-10-25T00:46:24.680Z,0.20
2022-10-25T00:48:58.931Z,0.20
2022-10-25T00:51:34.417Z,0.20
2022-10-25T00:54:03.080Z,0.20
2022-10-25T00:56:36.451Z,0.20
2022-10-25T00:59:08.762Z,0.20
2022-10-25T01:01:37.770Z,0.20
2022-10-25T01:04:09.421Z,0.10
2022-10-25T01:06:40.512Z,0.20
2022-10-25T01:09:11.830Z,0.30
2022-10-25T01:11:41.603Z,0.20
2022-10-25T01:14:13.361Z,0.20
2022-10-25T01:16:50.379Z,0.20
2022-10-25T01:19:37.543Z,0.20
2022-10-25T01:22:10.082Z,0.20
2022-10-25T01:25:19.150Z,0.20
2022-10-25T01:28:06.232Z,0.20
2022-10-25T01:31:03.155Z,0.30
2022-10-25T01:33:38.026Z,0.20
2022-10-25T01:38:50.377Z,0.20
2022-10-25T01:41:27.651Z,0.20
2022-10-25T01:44:08.234Z,0.20
2022-10-25T01:46:45.749Z,0.20
2022-10-25T01:49:18.725Z,0.23
2022-10-25T01:51:47.202Z,0.20
2022-10-25T01:54:21.207Z,0.20
2022-10-25T01:56:59.415Z,0.27
2022-10-25T02:00:00.332Z,0.20
2022-10-25T02:02:34.523Z,0.20
2022-10-25T02:05:12.417Z,0.20
2022-10-25T02:07:44.080Z,0.20
2022-10-25T02:10:17.699Z,0.20
2022-10-25T02:12:56.793Z,0.20
2022-10-25T02:15:29.951Z,0.20
2022-10-25T02:18:01.580Z,0.20
2022-10-25T02:20:33.762Z,0.20
2022-10-25T02:23:04.835Z,0.20
2022-10-25T02:25:34.785Z,0.20
2022-10-25T02:28:07.080Z,0.20
2022-10-25T02:30:36.902Z,0.20
2022-10-25T02:33:06.940Z,0.20
2022-10-25T02:35:35.283Z,0.20
2022-10-25T02:38:03.861Z,0.20
2022-10-25T02:40:32.360Z,0.20
2022-10-25T02:43:00.752Z,0.20
2022-10-25T02:45:29.279Z,0.20
2022-10-25T02:47:57.746Z,0.20
2022-10-25T02:50:27.603Z,0.30
2022-10-25T02:52:55.941Z,0.20
2022-10-25T02:55:24.418Z,0.20
2022-10-25T02:57:52.840Z,0.20
2022-10-25T03:00:21.214Z,0.20
2022-10-25T03:02:49.885Z,0.30
2022-10-25T03:05:21.279Z,0.20
2022-10-25T03:07:51.020Z,0.20
2022-10-25T03:10:19.425Z,0.20
2022-10-25T03:12:47.875Z,0.20
2022-10-25T03:15:16.565Z,0.20
2022-10-25T03:17:45.045Z,0.20
2022-10-25T03:20:13.561Z,0.20
2022-10-25T03:22:41.991Z,0.20
2022-10-25T03:25:11.809Z,0.20
2022-10-25T03:27:40.029Z,0.23
2022-10-25T03:30:09.675Z,0.20
2022-10-25T03:32:38.429Z,0.27
2022-10-25T03:35:08.179Z,0.20
2022-10-25T03:37:36.391Z,0.10
2022-10-25T03:40:05.119Z,0.20
2022-10-25T03:42:35.152Z,0.20
2022-10-25T03:45:03.519Z,0.20
2022-10-25T03:47:31.889Z,0.20
2022-10-25T03:50:00.480Z,0.20
2022-10-25T03:52:28.890Z,0.20
2022-10-25T03:54:57.194Z,0.20
2022-10-25T03:57:25.548Z,0.20
2022-10-25T03:59:55.319Z,0.20
2022-10-25T04:02:23.635Z,0.20
2022-10-25T04:04:51.950Z,0.20
2022-10-25T04:07:20.600Z,0.30
2022-10-25T04:09:48.892Z,0.20
2022-10-25T04:12:17.400Z,0.20
2022-10-25T04:14:45.669Z,0.20
2022-10-25T04:17:15.611Z,0.20
2022-10-25T04:19:43.943Z,0.20
2022-10-25T04:22:13.750Z,0.20
2022-10-25T04:24:42.000Z,0.30
2022-10-25T04:27:10.316Z,0.20
2022-10-25T04:29:38.821Z,0.20
2022-10-25T04:32:07.996Z,0.20
2022-10-25T04:34:38.085Z,0.20
2022-10-25T04:37:06.511Z,0.30
2022-10-25T04:39:34.862Z,0.20
2022-10-25T04:42:03.295Z,0.20
2022-10-25T04:44:31.809Z,0.20
2022-10-25T04:47:00.147Z,0.20
2022-10-25T04:49:28.739Z,0.30
2022-10-25T04:51:59.600Z,0.20
2022-10-25T04:54:28.208Z,0.20
2022-10-25T04:56:56.629Z,0.20
2022-10-25T04:59:25.130Z,0.20
2022-10-25T05:01:53.473Z,0.20
2022-10-25T05:04:21.953Z,0.20
2022-10-25T05:06:50.648Z,0.20
2022-10-25T05:09:20.479Z,0.20
2022-10-25T05:11:48.683Z,0.30
2022-10-25T05:14:16.968Z,0.20
2022-10-25T05:16:45.280Z,0.20
2022-10-25T05:19:13.652Z,0.20
2022-10-25T05:21:41.991Z,0.20
2022-10-25T05:24:10.349Z,0.20
2022-10-25T05:26:43.339Z,0.20
2022-10-25T05:29:12.989Z,0.20
2022-10-25T05:31:44.099Z,0.20
2022-10-25T05:34:12.560Z,0.20
2022-10-25T05:36:40.857Z,0.20
2022-10-25T05:39:09.395Z,0.23
2022-10-25T05:41:37.858Z,0.10
2022-10-25T05:44:08.361Z,0.20
2022-10-25T05:46:36.778Z,0.20
2022-10-25T05:49:05.321Z,0.20
2022-10-25T05:51:36.331Z,0.10
2022-10-25T05:54:06.982Z,0.20
2022-10-25T05:56:36.309Z,0.20
2022-10-25T05:59:08.815Z,0.20
2022-10-25T06:01:40.552Z,0.20
2022-10-25T06:04:09.660Z,0.20
2022-10-25T06:06:39.309Z,0.20
2022-10-25T06:09:09.953Z,0.20
2022-10-25T06:11:38.889Z,0.20
2022-10-25T06:14:08.138Z,0.20
2022-10-25T06:16:40.035Z,0.20
2022-10-25T06:19:08.669Z,0.20
2022-10-25T06:21:37.399Z,0.20
2022-10-25T06:24:06.228Z,0.20
2022-10-25T06:26:34.689Z,0.20
2022-10-25T06:29:04.879Z,0.20
2022-10-25T06:31:34.026Z,0.20
2022-10-25T06:34:04.338Z,0.10
2022-10-25T06:36:33.221Z,0.10
2022-10-25T06:39:05.291Z,0.20
2022-10-25T06:41:37.050Z,0.20
2022-10-25T06:44:07.489Z,0.20
2022-10-25T06:47:04.293Z,0.10
2022-10-25T06:49:28.019Z,0.17
2022-10-25T06:51:56.377Z,0.20
2022-10-25T06:54:26.774Z,0.20
2022-10-25T06:56:55.134Z,0.20
2022-10-25T06:59:23.727Z,0.20
2022-10-25T07:01:52.572Z,0.20
2022-10-25T07:04:21.030Z,0.20
2022-10-25T07:06:52.975Z,0.20
2022-10-25T07:09:23.662Z,0.20
2022-10-25T07:11:55.058Z,0.20
2022-10-25T07:14:23.473Z,0.27
2022-10-25T07:16:51.867Z,0.20
2022-10-25T07:19:20.247Z,0.20
2022-10-25T07:21:50.831Z,0.20
2022-10-25T07:24:19.200Z,0.20
2022-10-25T07:26:47.667Z,0.20
2022-10-25T07:29:16.002Z,0.20
2022-10-25T07:31:45.699Z,0.20
2022-10-25T07:34:15.544Z,0.20
2022-10-25T07:36:44.061Z,0.20
2022-10-25T07:39:13.846Z,0.20
2022-10-25T07:41:42.111Z,0.20
2022-10-25T07:44:15.939Z,0.20
2022-10-25T07:46:45.903Z,0.20
2022-10-25T07:49:14.361Z,0.20
2022-10-25T07:51:42.777Z,0.20
2022-10-25T07:54:11.073Z,0.20
2022-10-25T07:56:40.797Z,0.10
2022-10-25T07:59:09.038Z,0.20
2022-10-25T08:01:37.840Z,0.20
2022-10-25T08:04:06.460Z,0.20
2022-10-25T08:06:36.349Z,0.20
2022-10-25T08:09:14.327Z,0.20
2022-10-25T08:11:50.259Z,0.20
2022-10-25T08:14:18.678Z,0.20
2022-10-25T08:16:47.039Z,0.20
2022-10-25T08:19:15.460Z,0.17
2022-10-25T08:21:43.973Z,0.20
2022-10-25T08:24:12.756Z,0.20
2022-10-25T08:26:41.268Z,0.20
2022-10-25T08:29:11.262Z,0.20
2022-10-25T08:31:39.718Z,0.20
2022-10-25T08:34:08.137Z,0.17
2022-10-25T08:36:36.663Z,0.17
2022-10-25T08:39:05.179Z,0.20
2022-10-25T08:41:44.283Z,0.20
2022-10-25T08:44:25.161Z,0.20
2022-10-25T08:47:00.845Z,0.23
2022-10-25T08:49:35.534Z,0.20
2022-10-25T08:52:06.558Z,0.20
2022-10-25T08:54:36.965Z,0.20
2022-10-25T08:57:16.509Z,0.20
2022-10-25T08:59:51.378Z,0.20
2022-10-25T09:02:33.043Z,0.20
2022-10-25T09:05:01.641Z,0.20
2022-10-25T09:07:50.775Z,0.20
2022-10-25T09:10:32.199Z,0.20
2022-10-25T09:13:10.938Z,0.20
2022-10-25T09:15:53.889Z,0.20
2022-10-25T09:18:36.348Z,0.20
2022-10-25T09:21:14.801Z,0.10
2022-10-25T09:23:55.928Z,0.20
2022-10-25T09:26:34.548Z,0.20
2022-10-25T09:29:10.019Z,0.20
2022-10-25T09:31:45.568Z,0.20
2022-10-25T09:34:15.598Z,0.20
2022-10-25T09:36:47.430Z,0.20
2022-10-25T09:39:21.521Z,0.20
2022-10-25T09:41:53.052Z,0.10
2022-10-25T09:44:33.317Z,0.20
2022-10-25T09:47:12.829Z,0.20
2022-10-25T09:49:49.427Z,0.20
2022-10-25T09:52:25.600Z,0.20
2022-10-25T09:54:56.432Z,0.13
2022-10-25T09:57:24.750Z,0.20
2022-10-25T09:59:53.339Z,0.27
2022-10-25T10:02:26.142Z,0.20
2022-10-25T10:04:55.283Z,0.10
2022-10-25T10:07:29.230Z,0.20
2022-10-25T10:10:01.436Z,0.20
2022-10-25T10:12:36.458Z,0.20
2022-10-25T10:15:09.799Z,0.20
2022-10-25T10:17:39.558Z,0.20
2022-10-25T10:20:15.077Z,0.20
2022-10-25T10:22:50.626Z,0.20
2022-10-25T10:25:22.814Z,0.17
2022-10-25T10:27:54.834Z,0.10
2022-10-25T10:30:26.602Z,0.20
2022-10-25T10:32:59.120Z,0.20
2022-10-25T10:35:31.219Z,0.17
2022-10-25T10:38:16.158Z,0.20
2022-10-25T10:40:47.871Z,0.20
2022-10-25T10:43:29.863Z,0.20
2022-10-25T10:46:03.925Z,0.20
2022-10-25T10:48:43.102Z,0.20
2022-10-25T10:51:32.087Z,0.20
2022-10-25T10:54:26.400Z,0.20
2022-10-25T10:56:57.321Z,0.20
2022-10-25T10:59:52.823Z,0.17
2022-10-25T11:02:28.912Z,0.17
2022-10-25T11:04:59.151Z,0.20
2022-10-25T11:07:36.480Z,0.20
2022-10-25T11:10:26.650Z,0.20
2022-10-25T11:13:14.267Z,0.10
2022-10-25T11:15:58.543Z,0.10
2022-10-25T11:18:40.850Z,0.20
2022-10-25T11:21:19.605Z,0.20
2022-10-25T11:24:00.232Z,0.20
2022-10-25T11:26:36.251Z,0.20
2022-10-25T11:29:13.169Z,0.20
2022-10-25T11:31:56.129Z,0.20
2022-10-25T11:34:35.731Z,0.20
2022-10-25T11:37:13.459Z,0.20
2022-10-25T11:39:54.920Z,0.20
2022-10-25T11:42:46.880Z,0.20
2022-10-25T11:45:33.418Z,0.20
2022-10-25T11:48:39.968Z,0.13
2022-10-25T11:51:16.279Z,0.20
2022-10-25T11:54:09.131Z,0.20
2022-10-25T11:56:43.379Z,0.20
2022-10-25T11:59:19.089Z,0.20
2022-10-25T12:02:03.347Z,0.27
2022-10-25T12:04:53.697Z,0.10
2022-10-25T12:07:30.128Z,0.20
2022-10-25T12:10:14.835Z,0.20
2022-10-25T12:12:50.426Z,0.17
2022-10-25T12:15:24.271Z,0.20
2022-10-25T12:17:53.482Z,0.20
2022-10-25T12:20:26.015Z,0.17
2022-10-25T12:22:57.991Z,0.20
2022-10-25T12:25:32.597Z,0.10
2022-10-25T12:28:06.896Z,0.10
2022-10-25T12:30:37.107Z,0.10
2022-10-25T12:33:14.673Z,0.10
2022-10-25T12:35:50.778Z,0.10
2022-10-25T12:38:27.309Z,0.10
2022-10-25T12:41:03.658Z,0.10
2022-10-25T12:43:37.230Z,0.10
2022-10-25T12:46:23.743Z,0.10
2022-10-25T12:49:20.001Z,0.10
2022-10-25T12:52:02.161Z,0.13
2022-10-25T12:54:51.619Z,0.20
2022-10-25T12:57:28.226Z,0.17
2022-10-25T13:00:10.427Z,0.10
2022-10-25T13:03:14.284Z,0.20
2022-10-25T13:06:23.578Z,0.20
2022-10-25T13:08:52.229Z,0.10
2022-10-25T13:11:20.675Z,0.10
2022-10-25T13:13:53.770Z,0.10
2022-10-25T13:16:28.380Z,0.10
2022-10-25T13:19:42.760Z,0.10
2022-10-25T13:22:37.446Z,0.10
2022-10-25T13:25:17.426Z,0.10
2022-10-25T13:28:20.490Z,0.20
2022-10-25T13:30:50.429Z,0.10
2022-10-25T13:33:33.679Z,0.10
2022-10-25T13:36:05.752Z,0.20
2022-10-25T13:38:39.307Z,0.20
2022-10-25T13:41:19.857Z,0.10
2022-10-25T13:44:02.233Z,0.20
2022-10-25T13:46:38.708Z,0.20
2022-10-25T13:49:30.760Z,0.10
2022-10-25T13:52:01.738Z,0.10
2022-10-25T13:54:47.374Z,0.10
2022-10-25T13:57:46.562Z,0.10
2022-10-25T14:00:49.761Z,0.10
2022-10-25T14:03:36.056Z,0.10
2022-10-25T14:06:18.374Z,0.10
2022-10-25T14:08:55.030Z,0.10
2022-10-25T14:11:36.259Z,0.10
2022-10-25T14:14:17.544Z,0.10
2022-10-25T14:17:08.828Z,0.10
2022-10-25T14:19:42.199Z,0.10
2022-10-25T14:22:16.957Z,0.10
2022-10-25T14:24:50.048Z,0.10
2022-10-25T14:27:30.853Z,0.20
2022-10-25T14:30:25.405Z,0.20
2022-10-25T14:32:56.429Z,0.10
2022-10-25T14:35:31.712Z,0.10
2022-10-25T14:38:01.240Z,0.10
2022-10-25T14:40:32.294Z,0.10
2022-10-25T14:43:23.250Z,0.20
2022-10-25T14:46:13.512Z,0.20
2022-10-25T14:48:43.442Z,0.20
2022-10-25T14:51:19.832Z,0.20
2022-10-25T14:54:02.097Z,0.20
2022-10-25T14:56:34.616Z,0.10
2022-10-25T14:59:05.849Z,0.10
2022-10-25T15:01:36.249Z,0.20
2022-10-25T15:04:04.898Z,0.10
2022-10-25T15:06:35.016Z,0.20
2022-10-25T15:09:40.809Z,0.10
2022-10-25T15:12:18.523Z,0.20
2022-10-25T15:14:49.512Z,0.20
2022-10-25T15:17:25.388Z,0.10
2022-10-25T15:20:28.719Z,0.10
2022-10-25T15:23:06.813Z,0.20
2022-10-25T15:25:39.883Z,0.20
2022-10-25T15:28:13.299Z,0.20
2022-10-25T15:30:45.089Z,0.20
2022-10-25T15:33:17.769Z,0.20
2022-10-25T15:35:50.781Z,0.20
2022-10-25T15:38:20.901Z,0.20
2022-10-25T15:40:50.302Z,0.20
2022-10-25T15:43:18.780Z,0.20
2022-10-25T15:45:47.472Z,0.20
2022-10-25T15:48:17.978Z,0.20
2022-10-25T15:50:50.352Z,0.20
2022-10-25T15:53:20.795Z,0.20
2022-10-25T15:55:50.327Z,0.20
2022-10-25T15:58:19.168Z,0.20
2022-10-25T16:00:48.274Z,0.20
2022-10-25T16:03:21.808Z,0.20
2022-10-25T16:05:51.408Z,0.20
2022-10-25T16:08:22.279Z,0.20
2022-10-25T16:10:50.863Z,0.20
2022-10-25T16:13:28.271Z,0.10
2022-10-25T16:15:57.160Z,0.20
2022-10-25T16:18:27.256Z,0.20
2022-10-25T16:20:57.997Z,0.20
2022-10-25T16:23:28.406Z,0.10
2022-10-25T16:25:57.441Z,0.20
2022-10-25T16:30:54.268Z,0.20
2022-10-25T16:33:22.731Z,0.20
2022-10-25T16:35:51.559Z,0.20
2022-10-25T16:38:20.050Z,0.20
2022-10-25T16:40:50.304Z,0.30
2022-10-25T16:43:18.930Z,0.20
2022-10-25T16:45:47.924Z,0.20
2022-10-25T16:48:16.890Z,0.20
2022-10-25T16:50:46.575Z,0.20
2022-10-25T16:53:16.023Z,0.20
2022-10-25T16:55:44.423Z,0.20
2022-10-25T16:58:14.962Z,0.20
2022-10-25T17:00:43.638Z,0.20
2022-10-25T17:03:12.434Z,0.20
2022-10-25T17:05:41.362Z,0.20
2022-10-25T17:08:10.219Z,0.20
2022-10-25T17:10:43.662Z,0.20
2022-10-25T17:13:16.679Z,0.20
2022-10-25T17:15:45.350Z,0.20
2022-10-25T17:18:16.848Z,0.30
2022-10-25T17:20:45.625Z,0.20
2022-10-25T17:23:15.046Z,0.30
2022-10-25T17:25:43.760Z,0.20
2022-10-25T17:28:12.597Z,0.20
2022-10-25T17:30:44.254Z,0.20
2022-10-25T17:33:12.864Z,0.20
2022-10-25T17:35:42.877Z,0.20
2022-10-25T17:38:12.479Z,0.20
2022-10-25T17:40:41.316Z,0.20
2022-10-25T17:43:11.797Z,0.20
2022-10-25T17:45:40.771Z,0.30
2022-10-25T17:48:11.576Z,0.23
2022-10-25T17:50:42.567Z,0.20
2022-10-25T17:53:11.596Z,0.20
2022-10-25T17:55:41.191Z,0.30
2022-10-25T17:58:09.921Z,0.20
2022-10-25T18:00:39.457Z,0.20
2022-10-25T18:03:08.050Z,0.30
2022-10-25T18:05:39.946Z,0.20
2022-10-25T18:08:08.949Z,0.20
2022-10-25T18:10:37.641Z,0.20
2022-10-25T18:13:05.999Z,0.30
2022-10-25T18:15:35.843Z,0.20
2022-10-25T18:18:04.470Z,0.30
2022-10-25T18:20:33.081Z,0.30
2022-10-25T18:23:03.399Z,0.30
2022-10-25T18:25:32.020Z,0.30
2022-10-25T18:28:00.351Z,0.30
2022-10-25T18:30:29.102Z,0.30
2022-10-25T18:32:57.639Z,0.30
2022-10-25T18:35:26.143Z,0.30
2022-10-25T18:38:00.145Z,0.30
2022-10-25T18:40:30.363Z,0.30
2022-10-25T18:42:59.179Z,0.30
2022-10-25T18:45:28.442Z,0.30
2022-10-25T18:47:59.264Z,0.23
2022-10-25T18:50:29.303Z,0.20
2022-10-25T18:52:58.303Z,0.20
2022-10-25T18:55:28.461Z,0.20
2022-10-25T18:58:01.549Z,0.20
2022-10-25T19:00:31.619Z,0.20
2022-10-25T19:03:00.430Z,0.20
2022-10-25T19:05:31.374Z,0.20
2022-10-25T19:08:01.080Z,0.20
2022-10-25T19:10:30.578Z,0.20
2022-10-25T19:13:01.026Z,0.20
2022-10-25T19:15:29.786Z,0.30
2022-10-25T19:17:58.484Z,0.20
2022-10-25T19:20:27.361Z,0.27
2022-10-25T19:22:59.019Z,0.20
2022-10-25T19:25:29.972Z,0.30
2022-10-25T19:28:00.486Z,0.20
2022-10-25T19:30:29.273Z,0.30
2022-10-25T19:32:58.087Z,0.20
2022-10-25T19:35:27.000Z,0.30
2022-10-25T19:37:55.929Z,0.20
2022-10-25T19:40:24.391Z,0.20
2022-10-25T19:42:53.164Z,0.20
2022-10-25T19:45:24.023Z,0.20
2022-10-25T19:47:58.487Z,0.30
2022-10-25T19:50:30.391Z,0.30
2022-10-25T19:53:01.304Z,0.30
2022-10-25T19:55:31.945Z,0.30
2022-10-25T19:58:02.264Z,0.20
2022-10-25T20:00:32.350Z,0.20
2022-10-25T20:03:01.334Z,0.20
2022-10-25T20:05:31.093Z,0.30
2022-10-25T20:07:59.909Z,0.20
2022-10-25T20:10:29.036Z,0.30
2022-10-25T20:12:57.626Z,0.30
2022-10-25T20:15:26.163Z,0.27
2022-10-25T20:17:56.389Z,0.30
2022-10-25T20:20:24.767Z,0.30
2022-10-25T20:22:53.322Z,0.40
2022-10-25T20:25:21.773Z,0.30
2022-10-25T20:27:50.899Z,0.30
2022-10-25T20:30:19.686Z,0.30
2022-10-25T20:32:48.809Z,0.33
2022-10-25T20:35:21.268Z,0.30
2022-10-25T20:37:54.096Z,0.30
2022-10-25T20:40:24.275Z,0.40
2022-10-25T20:42:53.001Z,0.37
2022-10-25T20:45:23.356Z,0.30
2022-10-25T20:47:55.102Z,0.30
2022-10-25T20:50:27.639Z,0.20
2022-10-25T20:53:10.173Z,0.30
2022-10-25T20:55:41.795Z,0.30
2022-10-25T20:58:11.824Z,0.30
2022-10-25T21:00:42.162Z,0.20
2022-10-25T21:03:12.381Z,0.20
2022-10-25T21:05:45.724Z,0.40
2022-10-25T21:08:15.160Z,0.23
2022-10-25T21:10:45.043Z,0.30
2022-10-25T21:13:14.386Z,0.23
2022-10-25T21:15:46.828Z,0.30
2022-10-25T21:18:15.581Z,0.30
2022-10-25T21:20:45.679Z,0.30
2022-10-25T21:23:15.777Z,0.30
2022-10-25T21:25:44.248Z,0.40
2022-10-25T21:28:12.784Z,0.30
2022-10-25T21:30:41.390Z,0.30
2022-10-25T21:33:09.977Z,0.30
2022-10-25T21:35:38.420Z,0.30
2022-10-25T21:38:08.524Z,0.30
2022-10-25T21:40:36.798Z,0.30
2022-10-25T21:43:05.139Z,0.30
2022-10-25T21:45:33.819Z,0.50
2022-10-25T21:48:02.452Z,0.30
2022-10-25T21:50:30.898Z,0.30
2022-10-25T21:52:59.375Z,0.30
2022-10-25T21:55:29.093Z,0.33
2022-10-25T21:57:58.961Z,0.30
2022-10-25T22:00:27.569Z,0.30
2022-10-25T22:02:55.915Z,0.40
2022-10-25T22:05:24.296Z,0.30
2022-10-25T22:07:52.666Z,0.30
2022-10-25T22:10:21.118Z,0.30
2022-10-25T22:12:51.176Z,0.20
2022-10-25T22:15:20.029Z,0.20
2022-10-25T22:17:48.559Z,0.30
2022-10-25T22:20:17.049Z,0.30
2022-10-25T22:22:45.632Z,0.30
2022-10-25T22:25:14.198Z,0.30
2022-10-25T22:30:13.497Z,0.30
2022-10-25T22:32:41.979Z,0.40
2022-10-25T22:35:10.619Z,0.30
2022-10-25T22:37:39.018Z,0.30
2022-10-25T22:40:08.316Z,0.30
2022-10-25T22:42:36.806Z,0.30
2022-10-25T22:45:05.841Z,0.30
2022-10-25T22:47:35.692Z,0.20
2022-10-25T22:50:04.144Z,0.30
2022-10-25T22:52:32.529Z,0.20
2022-10-25T22:55:00.998Z,0.30
2022-10-25T22:57:31.223Z,0.40
2022-10-25T22:59:59.657Z,0.30
2022-10-25T23:02:28.409Z,0.30
2022-10-25T23:04:58.194Z,0.40
2022-10-25T23:07:26.800Z,0.30
2022-10-25T23:09:55.185Z,0.30
2022-10-25T23:12:23.639Z,0.27
2022-10-25T23:14:51.990Z,0.20
2022-10-25T23:17:20.542Z,0.30
2022-10-25T23:19:48.938Z,0.30
2022-10-25T23:22:18.813Z,0.30
2022-10-25T23:24:47.192Z,0.40
2022-10-25T23:27:15.880Z,0.30
2022-10-25T23:29:44.303Z,0.30
2022-10-25T23:32:12.547Z,0.30
2022-10-25T23:34:41.032Z,0.30
2022-10-25T23:37:09.322Z,0.30
2022-10-25T23:39:39.232Z,0.30
2022-10-25T23:42:07.869Z,0.30
2022-10-25T23:44:36.183Z,0.23
2022-10-25T23:47:04.772Z,0.30
2022-10-25T23:49:33.079Z,0.30
2022-10-25T23:52:01.496Z,0.20
2022-10-25T23:54:32.911Z,0.30
2022-10-25T23:57:05.966Z,0.37
2022-10-25T23:59:34.530Z,0.30
